sensor_id;sensor_type;location;lat;lon;timestamp;P1;P2;P0
82815;PMS5003;72570;46.826;-71.244;2023-09-12T00:01:23;2.75;1.5;0.5
82815;PMS5003;72570;46.826;-71.244;2023-09-12T00:03:50;2.6;2.25;0.25
82815;PMS5003;72570;46.826;-71.244;2023-09-12T00:06:17;4.9;3.05;1
82815;PMS5003;72570;46.826;-71.244;2023-09-12T00:08:41;3.1;1.65;0.5
82815;PMS5003;72570;46.826;-71.244;2023-09-12T00:11:07;2.6;1;0
82815;PMS5003;72570;46.826;-71.244;2023-09-12T00:13:31;2.9;2;0.2
82815;PMS5003;72570;46.826;-71.244;2023-09-12T00:15:57;1.45;1.35;0.75
82815;PMS5003;72570;46.826;-71.244;2023-09-12T00:18:22;1.3;1.3;1.1
82815;PMS5003;72570;46.826;-71.244;2023-09-12T00:20:49;2.85;2.85;1.15
82815;PMS5003;72570;46.826;-71.244;2023-09-12T00:23:13;4.05;2.76;0.52
82815;PMS5003;72570;46.826;-71.244;2023-09-12T00:25:40;3.75;2;1
82815;PMS5003;72570;46.826;-71.244;2023-09-12T00:28:06;2.05;2.05;0.2
82815;PMS5003;72570;46.826;-71.244;2023-09-12T00:30:30;2.45;2.45;1.05
82815;PMS5003;72570;46.826;-71.244;2023-09-12T00:32:57;3.1;2.15;0.35
82815;PMS5003;72570;46.826;-71.244;2023-09-12T00:35:20;1.95;1.95;0.95
82815;PMS5003;72570;46.826;-71.244;2023-09-12T00:37:54;4.24;2.62;1.9
82815;PMS5003;72570;46.826;-71.244;2023-09-12T00:40:18;2.71;2.71;1.38
82815;PMS5003;72570;46.826;-71.244;2023-09-12T00:42:45;2.3;2.3;0.9
82815;PMS5003;72570;46.826;-71.244;2023-09-12T00:45:09;4.25;3.35;1
82815;PMS5003;72570;46.826;-71.244;2023-09-12T00:47:34;3;2.8;1
82815;PMS5003;72570;46.826;-71.244;2023-09-12T00:49:59;1.65;1.45;0.75
82815;PMS5003;72570;46.826;-71.244;2023-09-12T00:52:25;3.05;2.55;0.95
82815;PMS5003;72570;46.826;-71.244;2023-09-12T00:54:52;2.14;2.14;1
82815;PMS5003;72570;46.826;-71.244;2023-09-12T00:57:18;2.38;2.38;0.62
82815;PMS5003;72570;46.826;-71.244;2023-09-12T00:59:41;3.9;3.9;1
82815;PMS5003;72570;46.826;-71.244;2023-09-12T01:02:07;3.9;3.24;0.1
82815;PMS5003;72570;46.826;-71.244;2023-09-12T01:04:33;6.95;3.84;1.53
82815;PMS5003;72570;46.826;-71.244;2023-09-12T01:06:57;1.76;1.76;0
82815;PMS5003;72570;46.826;-71.244;2023-09-12T01:09:24;2.33;2;0.9
82815;PMS5003;72570;46.826;-71.244;2023-09-12T01:11:48;2.64;2.64;1
82815;PMS5003;72570;46.826;-71.244;2023-09-12T01:14:14;2.62;2.62;1
82815;PMS5003;72570;46.826;-71.244;2023-09-12T01:16:41;2.95;2.24;0
82815;PMS5003;72570;46.826;-71.244;2023-09-12T01:19:04;3;2.52;1
82815;PMS5003;72570;46.826;-71.244;2023-09-12T01:21:37;2.38;2.38;0.38
82815;PMS5003;72570;46.826;-71.244;2023-09-12T01:24:01;2;2;0.95
82815;PMS5003;72570;46.826;-71.244;2023-09-12T01:26:30;2;2;0.62
82815;PMS5003;72570;46.826;-71.244;2023-09-12T01:28:49;2.55;2.36;0
82815;PMS5003;72570;46.826;-71.244;2023-09-12T01:31:13;3.14;3.14;1.05
82815;PMS5003;72570;46.826;-71.244;2023-09-12T01:33:39;2.38;2;0.1
82815;PMS5003;72570;46.826;-71.244;2023-09-12T01:36:05;1.24;1.24;0.52
82815;PMS5003;72570;46.826;-71.244;2023-09-12T01:38:30;3.33;2.81;0.62
82815;PMS5003;72570;46.826;-71.244;2023-09-12T01:40:53;2.1;2.1;0.52
82815;PMS5003;72570;46.826;-71.244;2023-09-12T01:43:21;2.29;1.9;0
82815;PMS5003;72570;46.826;-71.244;2023-09-12T01:45:47;1.55;1.41;0
82815;PMS5003;72570;46.826;-71.244;2023-09-12T01:48:12;3.1;2.33;1.1
82815;PMS5003;72570;46.826;-71.244;2023-09-12T01:50:36;1.81;1.48;0.62
82815;PMS5003;72570;46.826;-71.244;2023-09-12T01:53:01;2.05;1.38;0.24
82815;PMS5003;72570;46.826;-71.244;2023-09-12T01:55:26;1.71;1.05;0.48
82815;PMS5003;72570;46.826;-71.244;2023-09-12T01:57:53;3.05;3.05;0.9
82815;PMS5003;72570;46.826;-71.244;2023-09-12T02:00:18;1.24;1.24;0.24
82815;PMS5003;72570;46.826;-71.244;2023-09-12T02:02:42;2;2;1
82815;PMS5003;72570;46.826;-71.244;2023-09-12T02:05:11;1.48;1.33;1
82815;PMS5003;72570;46.826;-71.244;2023-09-12T02:07:35;1.86;1.05;0
82815;PMS5003;72570;46.826;-71.244;2023-09-12T02:09:59;2.9;2.9;1
82815;PMS5003;72570;46.826;-71.244;2023-09-12T02:12:24;2.33;2.24;0.48
82815;PMS5003;72570;46.826;-71.244;2023-09-12T02:14:50;1.24;1.24;0.24
82815;PMS5003;72570;46.826;-71.244;2023-09-12T02:17:15;2.95;2.95;0.95
82815;PMS5003;72570;46.826;-71.244;2023-09-12T02:19:40;1.5;1.5;0.55
82815;PMS5003;72570;46.826;-71.244;2023-09-12T02:22:07;1.67;1.67;0
82815;PMS5003;72570;46.826;-71.244;2023-09-12T02:24:30;1.9;1.9;0
82815;PMS5003;72570;46.826;-71.244;2023-09-12T02:26:56;0.9;0.9;0.48
82815;PMS5003;72570;46.826;-71.244;2023-09-12T02:29:22;2.9;1.48;0.1
82815;PMS5003;72570;46.826;-71.244;2023-09-12T02:31:48;1.76;1.76;0.62
82815;PMS5003;72570;46.826;-71.244;2023-09-12T02:34:11;2.33;2.33;0.67
82815;PMS5003;72570;46.826;-71.244;2023-09-12T02:36:39;2;2;0.82
82815;PMS5003;72570;46.826;-71.244;2023-09-12T02:39:02;1.19;1.19;0.1
82815;PMS5003;72570;46.826;-71.244;2023-09-12T02:41:29;2.24;2.24;1
82815;PMS5003;72570;46.826;-71.244;2023-09-12T02:43:53;2;2;0.24
82815;PMS5003;72570;46.826;-71.244;2023-09-12T02:46:19;1.1;1.1;0.81
82815;PMS5003;72570;46.826;-71.244;2023-09-12T02:48:45;3.19;3.19;0.1
82815;PMS5003;72570;46.826;-71.244;2023-09-12T02:51:11;0.9;0.9;0.76
82815;PMS5003;72570;46.826;-71.244;2023-09-12T02:53:37;2;1.59;0.32
82815;PMS5003;72570;46.826;-71.244;2023-09-12T02:56:02;2.1;1.1;0.38
82815;PMS5003;72570;46.826;-71.244;2023-09-12T02:58:25;3;2.48;0.24
82815;PMS5003;72570;46.826;-71.244;2023-09-12T03:00:51;2.33;2.33;0.38
82815;PMS5003;72570;46.826;-71.244;2023-09-12T03:03:18;2.76;2.76;1
82815;PMS5003;72570;46.826;-71.244;2023-09-12T03:05:41;4.81;3.52;1.1
82815;PMS5003;72570;46.826;-71.244;2023-09-12T03:08:07;4.86;2.76;0.52
82815;PMS5003;72570;46.826;-71.244;2023-09-12T03:10:34;3;3;0.68
82815;PMS5003;72570;46.826;-71.244;2023-09-12T03:12:58;2.86;2.29;0.95
82815;PMS5003;72570;46.826;-71.244;2023-09-12T03:15:25;2.95;2.95;1.52
82815;PMS5003;72570;46.826;-71.244;2023-09-12T03:17:49;2.24;2.24;0.62
82815;PMS5003;72570;46.826;-71.244;2023-09-12T03:20:14;3.19;3.19;0.76
82815;PMS5003;72570;46.826;-71.244;2023-09-12T03:22:39;3.24;3.24;1.24
82815;PMS5003;72570;46.826;-71.244;2023-09-12T03:25:06;2.52;1.9;1.1
82815;PMS5003;72570;46.826;-71.244;2023-09-12T03:27:29;2.64;2.64;1
82815;PMS5003;72570;46.826;-71.244;2023-09-12T03:29:56;2.9;2.9;2
82815;PMS5003;72570;46.826;-71.244;2023-09-12T03:32:22;3.76;3.1;0.9
82815;PMS5003;72570;46.826;-71.244;2023-09-12T03:34:47;4.52;1.9;1
82815;PMS5003;72570;46.826;-71.244;2023-09-12T03:37:13;3.19;3.19;1.24
82815;PMS5003;72570;46.826;-71.244;2023-09-12T03:39:36;4.19;4.19;1.67
82815;PMS5003;72570;46.826;-71.244;2023-09-12T03:42:04;2;2;1
82815;PMS5003;72570;46.826;-71.244;2023-09-12T03:44:29;3.09;2.55;1
82815;PMS5003;72570;46.826;-71.244;2023-09-12T03:46:54;2.9;2.9;1.1
82815;PMS5003;72570;46.826;-71.244;2023-09-12T03:49:18;4.81;3.05;1.76
82815;PMS5003;72570;46.826;-71.244;2023-09-12T03:51:43;4.29;4.05;2.1
82815;PMS5003;72570;46.826;-71.244;2023-09-12T03:54:09;4.29;2;1.52
82815;PMS5003;72570;46.826;-71.244;2023-09-12T03:56:36;3.67;3.67;1.52
82815;PMS5003;72570;46.826;-71.244;2023-09-12T03:58:59;4.33;4.33;2
82815;PMS5003;72570;46.826;-71.244;2023-09-12T04:01:25;2.23;2.23;2
82815;PMS5003;72570;46.826;-71.244;2023-09-12T04:03:50;4.76;3.1;1.81
82815;PMS5003;72570;46.826;-71.244;2023-09-12T04:06:16;2.9;2.9;0.81
82815;PMS5003;72570;46.826;-71.244;2023-09-12T04:08:43;4.48;3.62;1.62
82815;PMS5003;72570;46.826;-71.244;2023-09-12T04:11:06;2.38;2.38;1.38
82815;PMS5003;72570;46.826;-71.244;2023-09-12T04:13:32;3.52;2.52;1.67
82815;PMS5003;72570;46.826;-71.244;2023-09-12T04:15:56;5.19;5.19;1.81
82815;PMS5003;72570;46.826;-71.244;2023-09-12T04:18:22;4.5;3.68;1.95
82815;PMS5003;72570;46.826;-71.244;2023-09-12T04:20:50;2.33;2.33;1.05
82815;PMS5003;72570;46.826;-71.244;2023-09-12T04:23:16;4.81;4.52;2.24
82815;PMS5003;72570;46.826;-71.244;2023-09-12T04:25:38;4.38;3;1.33
82815;PMS5003;72570;46.826;-71.244;2023-09-12T04:28:04;3.24;3.24;1.67
82815;PMS5003;72570;46.826;-71.244;2023-09-12T04:30:30;5;4.71;2.29
82815;PMS5003;72570;46.826;-71.244;2023-09-12T04:32:54;3.67;3.67;1.76
82815;PMS5003;72570;46.826;-71.244;2023-09-12T04:35:21;3.82;3.82;2
82815;PMS5003;72570;46.826;-71.244;2023-09-12T04:37:46;8.62;4.38;2.05
82815;PMS5003;72570;46.826;-71.244;2023-09-12T04:40:10;3.38;3.38;1.67
82815;PMS5003;72570;46.826;-71.244;2023-09-12T04:42:36;4.24;3.52;2.24
82815;PMS5003;72570;46.826;-71.244;2023-09-12T04:45:03;3.76;3.76;1.52
82815;PMS5003;72570;46.826;-71.244;2023-09-12T04:47:27;2.62;2.62;1
82815;PMS5003;72570;46.826;-71.244;2023-09-12T04:49:53;5.1;3.14;1.57
82815;PMS5003;72570;46.826;-71.244;2023-09-12T04:52:18;4.32;3.68;1.68
82815;PMS5003;72570;46.826;-71.244;2023-09-12T04:54:42;4;4;1.24
82815;PMS5003;72570;46.826;-71.244;2023-09-12T04:57:08;3.57;3.52;1.05
82815;PMS5003;72570;46.826;-71.244;2023-09-12T04:59:34;3.33;3.33;1.24
82815;PMS5003;72570;46.826;-71.244;2023-09-12T05:01:58;4.9;4;2.38
82815;PMS5003;72570;46.826;-71.244;2023-09-12T05:04:24;8.42;5.32;2.26
82815;PMS5003;72570;46.826;-71.244;2023-09-12T05:06:48;4.48;3.86;2.24
82815;PMS5003;72570;46.826;-71.244;2023-09-12T05:09:15;3.82;3.82;2
82815;PMS5003;72570;46.826;-71.244;2023-09-12T05:11:40;5.29;4.76;2.81
82815;PMS5003;72570;46.826;-71.244;2023-09-12T05:14:07;5.14;4.14;2.19
82815;PMS5003;72570;46.826;-71.244;2023-09-12T05:16:30;4.43;3.81;2.67
82815;PMS5003;72570;46.826;-71.244;2023-09-12T05:18:56;7.76;6;3
82815;PMS5003;72570;46.826;-71.244;2023-09-12T05:21:22;4.67;4.67;2.81
82815;PMS5003;72570;46.826;-71.244;2023-09-12T05:23:46;4.9;4.9;2.24
82815;PMS5003;72570;46.826;-71.244;2023-09-12T05:26:14;6.5;5.09;2.23
82815;PMS5003;72570;46.826;-71.244;2023-09-12T05:28:38;3.33;3.33;1.81
82815;PMS5003;72570;46.826;-71.244;2023-09-12T05:31:04;5.1;4.62;2.05
82815;PMS5003;72570;46.826;-71.244;2023-09-12T05:33:30;5.24;5.24;3.38
82815;PMS5003;72570;46.826;-71.244;2023-09-12T05:35:53;4.76;4.67;2.76
82815;PMS5003;72570;46.826;-71.244;2023-09-12T05:38:20;3.86;3.33;1.62
82815;PMS5003;72570;46.826;-71.244;2023-09-12T05:40:46;6;4.86;3
82815;PMS5003;72570;46.826;-71.244;2023-09-12T05:43:11;5.55;5;3
82815;PMS5003;72570;46.826;-71.244;2023-09-12T05:45:36;4.19;4.19;1.67
82815;PMS5003;72570;46.826;-71.244;2023-09-12T05:48:00;5.48;5;2.67
82815;PMS5003;72570;46.826;-71.244;2023-09-12T05:50:26;4.67;3.76;2
82815;PMS5003;72570;46.826;-71.244;2023-09-12T05:52:52;3.62;3.62;2
82815;PMS5003;72570;46.826;-71.244;2023-09-12T05:55:16;7.52;5.57;2.52
82815;PMS5003;72570;46.826;-71.244;2023-09-12T05:57:42;6.52;4.71;2.1
82815;PMS5003;72570;46.826;-71.244;2023-09-12T06:00:10;5.82;5.36;2.91
82815;PMS5003;72570;46.826;-71.244;2023-09-12T06:02:33;5.14;4.38;2.14
82815;PMS5003;72570;46.826;-71.244;2023-09-12T06:04:57;4.76;4.76;3.33
82815;PMS5003;72570;46.826;-71.244;2023-09-12T06:07:24;3.95;3.95;2.1
82815;PMS5003;72570;46.826;-71.244;2023-09-12T06:09:48;4.81;4.38;3.05
82815;PMS5003;72570;46.826;-71.244;2023-09-12T06:12:15;4.24;4.24;2.67
82815;PMS5003;72570;46.826;-71.244;2023-09-12T06:14:41;5.24;4.24;2.19
82815;PMS5003;72570;46.826;-71.244;2023-09-12T06:17:07;4.09;4.09;2.14
82815;PMS5003;72570;46.826;-71.244;2023-09-12T06:19:31;5.14;5.14;3.19
82815;PMS5003;72570;46.826;-71.244;2023-09-12T06:21:57;4.33;4.1;2.76
82815;PMS5003;72570;46.826;-71.244;2023-09-12T06:24:21;5.57;4.38;2.67
82815;PMS5003;72570;46.826;-71.244;2023-09-12T06:26:48;4.62;4.62;2.62
82815;PMS5003;72570;46.826;-71.244;2023-09-12T06:29:12;6.48;4.62;2.14
82815;PMS5003;72570;46.826;-71.244;2023-09-12T06:31:37;3.95;3.67;2
82815;PMS5003;72570;46.826;-71.244;2023-09-12T06:34:04;4.18;3.95;1.95
82815;PMS5003;72570;46.826;-71.244;2023-09-12T06:36:29;3.48;3.24;1.38
82815;PMS5003;72570;46.826;-71.244;2023-09-12T06:38:52;6.24;5.48;2
82815;PMS5003;72570;46.826;-71.244;2023-09-12T06:41:19;4.05;4.05;2.19
82815;PMS5003;72570;46.826;-71.244;2023-09-12T06:43:43;3.9;3.9;1.9
82815;PMS5003;72570;46.826;-71.244;2023-09-12T06:46:08;3.19;3;1.19
82815;PMS5003;72570;46.826;-71.244;2023-09-12T06:48:35;6.14;4.1;2
82815;PMS5003;72570;46.826;-71.244;2023-09-12T06:51:04;2.77;2.77;2.05
82815;PMS5003;72570;46.826;-71.244;2023-09-12T06:53:27;3.95;3.95;2.14
82815;PMS5003;72570;46.826;-71.244;2023-09-12T06:55:52;4.29;3.9;2
82815;PMS5003;72570;46.826;-71.244;2023-09-12T06:58:14;3.52;3.52;2.1
82815;PMS5003;72570;46.826;-71.244;2023-09-12T07:00:40;5.19;5.19;3.05
82815;PMS5003;72570;46.826;-71.244;2023-09-12T07:03:08;5.71;5.48;2.95
82815;PMS5003;72570;46.826;-71.244;2023-09-12T07:05:34;3.33;3.14;2.33
82815;PMS5003;72570;46.826;-71.244;2023-09-12T07:07:57;6.82;5.95;3.86
82815;PMS5003;72570;46.826;-71.244;2023-09-12T07:10:24;4.48;4.38;2.38
82815;PMS5003;72570;46.826;-71.244;2023-09-12T07:12:48;5.9;3.33;1.67
82815;PMS5003;72570;46.826;-71.244;2023-09-12T07:15:13;4.62;4.1;3.05
82815;PMS5003;72570;46.826;-71.244;2023-09-12T07:17:38;4.62;4.62;2
82815;PMS5003;72570;46.826;-71.244;2023-09-12T07:20:03;2.67;2.67;1.76
82815;PMS5003;72570;46.826;-71.244;2023-09-12T07:22:28;3.29;3.29;1.9
82815;PMS5003;72570;46.826;-71.244;2023-09-12T07:24:59;5.5;4.95;2.41
82815;PMS5003;72570;46.826;-71.244;2023-09-12T07:27:19;2.81;2.81;1.19
82815;PMS5003;72570;46.826;-71.244;2023-09-12T07:29:46;4;3.24;1.62
82815;PMS5003;72570;46.826;-71.244;2023-09-12T07:32:12;3.52;3.52;2
82815;PMS5003;72570;46.826;-71.244;2023-09-12T07:34:36;4.95;4.24;2.38
82815;PMS5003;72570;46.826;-71.244;2023-09-12T07:37:03;4.9;3;2
82815;PMS5003;72570;46.826;-71.244;2023-09-12T07:39:33;3.95;3.95;2.36
82815;PMS5003;72570;46.826;-71.244;2023-09-12T07:41:58;5.23;4.27;1.77
82815;PMS5003;72570;46.826;-71.244;2023-09-12T07:44:25;3.1;2.9;1.48
82815;PMS5003;72570;46.826;-71.244;2023-09-12T07:46:48;4.76;4.67;2.24
82815;PMS5003;72570;46.826;-71.244;2023-09-12T07:49:15;3.19;3;1.52
82815;PMS5003;72570;46.826;-71.244;2023-09-12T07:51:41;3.81;3.81;2.05
82815;PMS5003;72570;46.826;-71.244;2023-09-12T07:54:05;3.9;3.9;1.86
82815;PMS5003;72570;46.826;-71.244;2023-09-12T07:56:32;3.82;2.05;0.68
82815;PMS5003;72570;46.826;-71.244;2023-09-12T07:58:58;4;3.9;2.67
82815;PMS5003;72570;46.826;-71.244;2023-09-12T08:01:22;3.38;3.38;1.48
82815;PMS5003;72570;46.826;-71.244;2023-09-12T08:03:48;6.71;4.81;2.24
82815;PMS5003;72570;46.826;-71.244;2023-09-12T08:06:12;4.43;4.43;1.38
82815;PMS5003;72570;46.826;-71.244;2023-09-12T08:08:36;3.1;3.1;1.38
82815;PMS5003;72570;46.826;-71.244;2023-09-12T08:11:03;3.81;3.81;1.95
82815;PMS5003;72570;46.826;-71.244;2023-09-12T08:13:29;3.91;3.91;1.23
82815;PMS5003;72570;46.826;-71.244;2023-09-12T08:15:55;3.14;3.14;1.52
82815;PMS5003;72570;46.826;-71.244;2023-09-12T08:18:21;4.14;3.29;2
82815;PMS5003;72570;46.826;-71.244;2023-09-12T08:20:44;4.29;4.29;2.48
82815;PMS5003;72570;46.826;-71.244;2023-09-12T08:23:11;5.71;3.62;2
82815;PMS5003;72570;46.826;-71.244;2023-09-12T08:25:35;3.05;2.9;1.33
82815;PMS5003;72570;46.826;-71.244;2023-09-12T08:28:00;5.9;5.38;1.48
82815;PMS5003;72570;46.826;-71.244;2023-09-12T08:30:27;3.68;3.68;2
82815;PMS5003;72570;46.826;-71.244;2023-09-12T08:32:53;4.05;4.05;1.76
82815;PMS5003;72570;46.826;-71.244;2023-09-12T08:35:16;4.57;4.29;2.05
82815;PMS5003;72570;46.826;-71.244;2023-09-12T08:37:43;4.52;2.81;1.19
82815;PMS5003;72570;46.826;-71.244;2023-09-12T08:40:09;5.19;4.62;2.05
82815;PMS5003;72570;46.826;-71.244;2023-09-12T08:42:33;4.14;2.57;0.86
82815;PMS5003;72570;46.826;-71.244;2023-09-12T08:44:59;2.62;2.62;1.52
82815;PMS5003;72570;46.826;-71.244;2023-09-12T08:47:24;3.77;3.77;2.27
82815;PMS5003;72570;46.826;-71.244;2023-09-12T08:49:51;4.29;2.95;1.29
82815;PMS5003;72570;46.826;-71.244;2023-09-12T08:52:15;4;3.1;1.67
82815;PMS5003;72570;46.826;-71.244;2023-09-12T08:54:39;4.67;3.71;2.48
82815;PMS5003;72570;46.826;-71.244;2023-09-12T08:57:07;5.57;4.76;1.95
82815;PMS5003;72570;46.826;-71.244;2023-09-12T08:59:31;3.9;3.52;1.52
82815;PMS5003;72570;46.826;-71.244;2023-09-12T09:13:54;4.62;4.38;1.52
82815;PMS5003;72570;46.826;-71.244;2023-09-12T09:14:12;2.91;2.91;1.23
82815;PMS5003;72570;46.826;-71.244;2023-09-12T09:14:29;4.91;3.95;2.36
82815;PMS5003;72570;46.826;-71.244;2023-09-12T09:14:38;2.82;2.82;1.41
82815;PMS5003;72570;46.826;-71.244;2023-09-12T09:14:48;6.45;3.59;2.59
82815;PMS5003;72570;46.826;-71.244;2023-09-12T09:15:43;5.73;4.41;2.09
82815;PMS5003;72570;46.826;-71.244;2023-09-12T09:18:07;5.43;5.43;2.38
82815;PMS5003;72570;46.826;-71.244;2023-09-12T09:20:33;5.18;5.18;2.68
82815;PMS5003;72570;46.826;-71.244;2023-09-12T09:23:00;3.62;3.62;1.67
82815;PMS5003;72570;46.826;-71.244;2023-09-12T09:25:25;4.29;3.67;1.19
82815;PMS5003;72570;46.826;-71.244;2023-09-12T09:27:50;5.05;4.29;2.05
82815;PMS5003;72570;46.826;-71.244;2023-09-12T09:30:16;4.43;4.43;1.33
82815;PMS5003;72570;46.826;-71.244;2023-09-12T09:32:39;5.48;4.48;3
82815;PMS5003;72570;46.826;-71.244;2023-09-12T09:35:05;6;4.67;2.33
82815;PMS5003;72570;46.826;-71.244;2023-09-12T09:37:32;4.18;3.36;1.95
82815;PMS5003;72570;46.826;-71.244;2023-09-12T09:39:57;3;3;1.81
82815;PMS5003;72570;46.826;-71.244;2023-09-12T09:42:22;6.05;5.24;2.1
82815;PMS5003;72570;46.826;-71.244;2023-09-12T09:44:48;4.1;4.1;1.9
82815;PMS5003;72570;46.826;-71.244;2023-09-12T09:47:12;3.9;3.9;1.38
82815;PMS5003;72570;46.826;-71.244;2023-09-12T09:49:37;4.29;4.29;2.05
82815;PMS5003;72570;46.826;-71.244;2023-09-12T09:52:04;4.14;3.52;2.19
82815;PMS5003;72570;46.826;-71.244;2023-09-12T09:54:30;4.5;3.77;1.23
82815;PMS5003;72570;46.826;-71.244;2023-09-12T09:56:56;4.29;4.14;2
82815;PMS5003;72570;46.826;-71.244;2023-09-12T09:59:20;4.81;3.38;1.38
82815;PMS5003;72570;46.826;-71.244;2023-09-12T10:01:45;4.57;3.33;1.33
82815;PMS5003;72570;46.826;-71.244;2023-09-12T10:04:10;4.95;3.29;1.38
82815;PMS5003;72570;46.826;-71.244;2023-09-12T10:06:36;3.43;3.43;1.33
82815;PMS5003;72570;46.826;-71.244;2023-09-12T10:09:03;3.24;3.24;1.67
82815;PMS5003;72570;46.826;-71.244;2023-09-12T10:11:27;4.77;4.77;1.82
82815;PMS5003;72570;46.826;-71.244;2023-09-12T10:13:53;4.76;3.24;2
82815;PMS5003;72570;46.826;-71.244;2023-09-12T10:16:16;3.19;3.19;1.1
82815;PMS5003;72570;46.826;-71.244;2023-09-12T10:18:44;4.57;3.9;1.29
82815;PMS5003;72570;46.826;-71.244;2023-09-12T10:21:10;6.86;3.62;2
82815;PMS5003;72570;46.826;-71.244;2023-09-12T10:23:34;4.81;4.81;2
82815;PMS5003;72570;46.826;-71.244;2023-09-12T10:25:59;4.38;4;1.62
82815;PMS5003;72570;46.826;-71.244;2023-09-12T10:28:25;4.77;4;1.5
82815;PMS5003;72570;46.826;-71.244;2023-09-12T10:30:50;7.48;3.76;1.9
82815;PMS5003;72570;46.826;-71.244;2023-09-12T10:33:14;4.67;2.57;1.19
82815;PMS5003;72570;46.826;-71.244;2023-09-12T10:35:41;3.33;3.33;1.24
82815;PMS5003;72570;46.826;-71.244;2023-09-12T10:38:04;4.05;3.14;1.14
82815;PMS5003;72570;46.826;-71.244;2023-09-12T10:40:31;5.05;4.48;1.62
82815;PMS5003;72570;46.826;-71.244;2023-09-12T10:42:55;4.48;4.24;1.9
82815;PMS5003;72570;46.826;-71.244;2023-09-12T10:45:22;4;4;2.05
82815;PMS5003;72570;46.826;-71.244;2023-09-12T10:47:47;3.19;3.19;2.05
82815;PMS5003;72570;46.826;-71.244;2023-09-12T10:50:12;6.1;2.76;1.14
82815;PMS5003;72570;46.826;-71.244;2023-09-12T10:52:38;5.33;4.52;1.81
82815;PMS5003;72570;46.826;-71.244;2023-09-12T10:55:04;3.67;3.52;1.24
82815;PMS5003;72570;46.826;-71.244;2023-09-12T10:57:29;3.38;3.38;1
82815;PMS5003;72570;46.826;-71.244;2023-09-12T11:00:11;3.38;3.38;1.81
82815;PMS5003;72570;46.826;-71.244;2023-09-12T11:02:42;4.09;3;1.55
82815;PMS5003;72570;46.826;-71.244;2023-09-12T11:04:44;4.14;2.81;1
82815;PMS5003;72570;46.826;-71.244;2023-09-12T11:08:14;2.81;2.81;1
82815;PMS5003;72570;46.826;-71.244;2023-09-12T11:09:34;4.33;3.38;1.9
82815;PMS5003;72570;46.826;-71.244;2023-09-12T11:12:02;2.52;2.52;1
82815;PMS5003;72570;46.826;-71.244;2023-09-12T11:14:26;2.48;2.48;0.9
82815;PMS5003;72570;46.826;-71.244;2023-09-12T11:17:23;3.33;2.19;1.33
82815;PMS5003;72570;46.826;-71.244;2023-09-12T11:19:23;8.43;4.62;2.62
82815;PMS5003;72570;46.826;-71.244;2023-09-12T11:21:42;5.62;4.67;2.1
82815;PMS5003;72570;46.826;-71.244;2023-09-12T11:24:08;3.48;3.48;1.95
82815;PMS5003;72570;46.826;-71.244;2023-09-12T11:26:32;3.24;3.24;1
82815;PMS5003;72570;46.826;-71.244;2023-09-12T11:28:58;3.38;3.38;1.9
82815;PMS5003;72570;46.826;-71.244;2023-09-12T11:31:24;4.86;2.86;1.62
82815;PMS5003;72570;46.826;-71.244;2023-09-12T11:33:47;2.95;2.62;0.9
82815;PMS5003;72570;46.826;-71.244;2023-09-12T11:36:15;2.91;2.91;1
82815;PMS5003;72570;46.826;-71.244;2023-09-12T11:38:38;2.67;2.67;1.9
82815;PMS5003;72570;46.826;-71.244;2023-09-12T11:41:05;3.1;3.1;1.05
82815;PMS5003;72570;46.826;-71.244;2023-09-12T11:43:29;2.48;2;1.1
82815;PMS5003;72570;46.826;-71.244;2023-09-12T11:45:55;4.86;3.52;1.24
82815;PMS5003;72570;46.826;-71.244;2023-09-12T11:48:20;3.57;3.57;1.76
82815;PMS5003;72570;46.826;-71.244;2023-09-12T11:50:49;2.71;2.71;0.95
82815;PMS5003;72570;46.826;-71.244;2023-09-12T11:53:12;2.77;2.77;1.27
82815;PMS5003;72570;46.826;-71.244;2023-09-12T11:55:41;2.71;1.67;0.81
82815;PMS5003;72570;46.826;-71.244;2023-09-12T11:58:03;2.19;1.81;0.76
82815;PMS5003;72570;46.826;-71.244;2023-09-12T12:00:29;2.19;1.62;1
82815;PMS5003;72570;46.826;-71.244;2023-09-12T12:02:53;2.19;2.19;0.67
82815;PMS5003;72570;46.826;-71.244;2023-09-12T12:05:17;3.05;3;1.1
82815;PMS5003;72570;46.826;-71.244;2023-09-12T12:07:41;1.48;1.43;0.76
82815;PMS5003;72570;46.826;-71.244;2023-09-12T12:10:10;1.14;1;0
82815;PMS5003;72570;46.826;-71.244;2023-09-12T12:12:34;2.48;2.38;0.81
82815;PMS5003;72570;46.826;-71.244;2023-09-12T12:15:00;2;2;1
82815;PMS5003;72570;46.826;-71.244;2023-09-12T12:17:26;1.95;1.95;0.95
82815;PMS5003;72570;46.826;-71.244;2023-09-12T12:19:51;1.95;1.95;0.62
82815;PMS5003;72570;46.826;-71.244;2023-09-12T12:22:16;1.1;1.1;0
82815;PMS5003;72570;46.826;-71.244;2023-09-12T12:24:43;1;1;0
82815;PMS5003;72570;46.826;-71.244;2023-09-12T12:27:06;1.55;1.55;0.68
82815;PMS5003;72570;46.826;-71.244;2023-09-12T12:29:32;0.7;0.5;0
82815;PMS5003;72570;46.826;-71.244;2023-09-12T12:31:59;1.95;1.48;0.05
82815;PMS5003;72570;46.826;-71.244;2023-09-12T12:34:21;4.81;2.05;0.81
82815;PMS5003;72570;46.826;-71.244;2023-09-12T12:36:46;2.38;1;0.81
82815;PMS5003;72570;46.826;-71.244;2023-09-12T12:39:12;2.24;1.81;0.14
82815;PMS5003;72570;46.826;-71.244;2023-09-12T12:41:37;1.05;1.05;0
82815;PMS5003;72570;46.826;-71.244;2023-09-12T12:44:05;0.14;0.14;0
82815;PMS5003;72570;46.826;-71.244;2023-09-12T12:46:28;0.48;0.48;0
82815;PMS5003;72570;46.826;-71.244;2023-09-12T12:48:55;0.52;0.52;0
82815;PMS5003;72570;46.826;-71.244;2023-09-12T12:51:21;1.76;1.76;0
82815;PMS5003;72570;46.826;-71.244;2023-09-12T12:53:46;0.95;0.95;0
82815;PMS5003;72570;46.826;-71.244;2023-09-12T12:56:11;1.1;0.48;0
82815;PMS5003;72570;46.826;-71.244;2023-09-12T12:58:35;0;0;0
82815;PMS5003;72570;46.826;-71.244;2023-09-12T13:01:02;0;0;0
82815;PMS5003;72570;46.826;-71.244;2023-09-12T13:03:25;0.1;0.1;0
82815;PMS5003;72570;46.826;-71.244;2023-09-12T13:05:51;0.75;0.65;0
82815;PMS5003;72570;46.826;-71.244;2023-09-12T13:08:16;0;0;0
82815;PMS5003;72570;46.826;-71.244;2023-09-12T13:10:41;1.14;0.24;0
82815;PMS5003;72570;46.826;-71.244;2023-09-12T13:13:07;0.75;0.65;0
82815;PMS5003;72570;46.826;-71.244;2023-09-12T13:15:34;0.24;0.24;0
82815;PMS5003;72570;46.826;-71.244;2023-09-12T13:17:58;0;0;0
82815;PMS5003;72570;46.826;-71.244;2023-09-12T13:20:24;0;0;0
82815;PMS5003;72570;46.826;-71.244;2023-09-12T13:22:51;0.05;0;0
82815;PMS5003;72570;46.826;-71.244;2023-09-12T13:25:15;0;0;0
82815;PMS5003;72570;46.826;-71.244;2023-09-12T13:27:40;1.5;0.75;0
82815;PMS5003;72570;46.826;-71.244;2023-09-12T13:30:06;2;0.5;0
82815;PMS5003;72570;46.826;-71.244;2023-09-12T13:32:29;0;0;0
82815;PMS5003;72570;46.826;-71.244;2023-09-12T13:34:56;0;0;0
82815;PMS5003;72570;46.826;-71.244;2023-09-12T13:37:21;1.1;1;0
82815;PMS5003;72570;46.826;-71.244;2023-09-12T13:39:48;0;0;0
82815;PMS5003;72570;46.826;-71.244;2023-09-12T13:42:12;0;0;0
82815;PMS5003;72570;46.826;-71.244;2023-09-12T13:44:37;0.55;0.55;0
82815;PMS5003;72570;46.826;-71.244;2023-09-12T13:47:03;0.35;0.1;0
82815;PMS5003;72570;46.826;-71.244;2023-09-12T13:49:29;0.05;0;0
82815;PMS5003;72570;46.826;-71.244;2023-09-12T13:51:54;0;0;0
82815;PMS5003;72570;46.826;-71.244;2023-09-12T13:54:20;0.85;0;0
82815;PMS5003;72570;46.826;-71.244;2023-09-12T13:56:45;0.9;0;0
82815;PMS5003;72570;46.826;-71.244;2023-09-12T13:59:10;0;0;0
82815;PMS5003;72570;46.826;-71.244;2023-09-12T14:01:35;0;0;0
82815;PMS5003;72570;46.826;-71.244;2023-09-12T14:03:59;0;0;0
82815;PMS5003;72570;46.826;-71.244;2023-09-12T14:06:25;0;0;0
82815;PMS5003;72570;46.826;-71.244;2023-09-12T14:08:51;0.62;0.48;0.19
82815;PMS5003;72570;46.826;-71.244;2023-09-12T14:11:18;0.5;0;0
82815;PMS5003;72570;46.826;-71.244;2023-09-12T14:13:41;0;0;0